sensor_id;sensor_type;location;lat;lon;timestamp;pressure;altitude;pressure_sealevel;temperature;humidity
62031;BME280;62035;52.094;5.112;2023-04-06T00:01:21;101910.78;;;5.85;100.00
62031;BME280;62035;52.094;5.112;2023-04-06T00:03:49;101908.28;;;5.98;100.00
62031;BME280;62035;52.094;5.112;2023-04-06T00:06:16;101900.22;;;5.85;100.00
62031;BME280;62035;52.094;5.112;2023-04-06T00:08:44;101903.22;;;5.79;100.00
62031;BME280;62035;52.094;5.112;2023-04-06T00:11:12;101903.13;;;5.81;100.00
62031;BME280;62035;52.094;5.112;2023-04-06T00:13:39;101905.75;;;5.66;100.00
62031;BME280;62035;52.094;5.112;2023-04-06T00:16:07;101899.34;;;5.70;100.00
62031;BME280;62035;52.094;5.112;2023-04-06T00:18:36;101897.53;;;5.57;100.00
62031;BME280;62035;52.094;5.112;2023-04-06T00:21:04;101893.56;;;5.50;100.00
62031;BME280;62035;52.094;5.112;2023-04-06T00:23:32;101889.88;;;5.52;100.00
62031;BME280;62035;52.094;5.112;2023-04-06T00:25:59;101883.00;;;5.50;100.00
62031;BME280;62035;52.094;5.112;2023-04-06T00:28:27;101891.09;;;5.47;100.00
62031;BME280;62035;52.094;5.112;2023-04-06T00:30:56;101886.22;;;5.55;100.00
62031;BME280;62035;52.094;5.112;2023-04-06T00:33:23;101875.66;;;5.55;100.00
62031;BME280;62035;52.094;5.112;2023-04-06T00:35:52;101876.97;;;5.48;100.00
62031;BME280;62035;52.094;5.112;2023-04-06T00:38:21;101883.09;;;5.48;100.00
62031;BME280;62035;52.094;5.112;2023-04-06T00:40:49;101871.91;;;5.59;100.00
62031;BME280;62035;52.094;5.112;2023-04-06T00:43:17;101869.63;;;5.53;100.00
62031;BME280;62035;52.094;5.112;2023-04-06T00:45:45;101875.16;;;5.62;100.00
62031;BME280;62035;52.094;5.112;2023-04-06T00:48:12;101866.69;;;5.72;100.00
62031;BME280;62035;52.094;5.112;2023-04-06T00:50:40;101869.66;;;5.37;100.00
62031;BME280;62035;52.094;5.112;2023-04-06T00:53:09;101853.94;;;5.64;100.00
62031;BME280;62035;52.094;5.112;2023-04-06T00:55:38;101860.34;;;5.60;100.00
62031;BME280;62035;52.094;5.112;2023-04-06T00:58:06;101857.47;;;5.79;100.00
62031;BME280;62035;52.094;5.112;2023-04-06T01:00:33;101856.59;;;5.50;100.00
62031;BME280;62035;52.094;5.112;2023-04-06T01:03:01;101856.06;;;5.59;100.00
62031;BME280;62035;52.094;5.112;2023-04-06T01:05:29;101846.44;;;5.58;100.00
62031;BME280;62035;52.094;5.112;2023-04-06T01:07:57;101840.66;;;5.51;100.00
62031;BME280;62035;52.094;5.112;2023-04-06T01:10:26;101819.25;;;5.42;100.00
62031;BME280;62035;52.094;5.112;2023-04-06T01:12:55;101842.44;;;5.65;100.00
62031;BME280;62035;52.094;5.112;2023-04-06T01:15:23;101837.84;;;5.68;100.00
62031;BME280;62035;52.094;5.112;2023-04-06T01:17:51;101834.72;;;5.76;100.00
62031;BME280;62035;52.094;5.112;2023-04-06T01:20:19;101832.38;;;5.72;100.00
62031;BME280;62035;52.094;5.112;2023-04-06T01:22:48;101831.59;;;5.69;100.00
62031;BME280;62035;52.094;5.112;2023-04-06T01:25:16;101828.13;;;5.69;100.00
62031;BME280;62035;52.094;5.112;2023-04-06T01:27:43;101832.28;;;5.73;100.00
62031;BME280;62035;52.094;5.112;2023-04-06T01:30:11;101826.84;;;5.90;100.00
62031;BME280;62035;52.094;5.112;2023-04-06T01:32:39;101822.38;;;5.77;100.00
62031;BME280;62035;52.094;5.112;2023-04-06T01:35:07;101818.22;;;5.87;100.00
62031;BME280;62035;52.094;5.112;2023-04-06T01:37:35;101811.72;;;5.78;100.00
62031;BME280;62035;52.094;5.112;2023-04-06T01:40:06;101812.66;;;5.77;100.00
62031;BME280;62035;52.094;5.112;2023-04-06T01:42:34;101808.13;;;5.79;100.00
62031;BME280;62035;52.094;5.112;2023-04-06T01:45:02;101806.72;;;5.74;100.00
62031;BME280;62035;52.094;5.112;2023-04-06T01:47:30;101800.53;;;5.89;100.00
62031;BME280;62035;52.094;5.112;2023-04-06T01:49:58;101802.84;;;5.79;100.00
62031;BME280;62035;52.094;5.112;2023-04-06T01:52:26;101797.28;;;5.84;100.00
62031;BME280;62035;52.094;5.112;2023-04-06T01:54:53;101797.28;;;5.69;100.00
62031;BME280;62035;52.094;5.112;2023-04-06T01:57:22;101788.91;;;5.91;100.00
62031;BME280;62035;52.094;5.112;2023-04-06T01:59:51;101797.75;;;5.76;100.00
62031;BME280;62035;52.094;5.112;2023-04-06T02:02:18;101786.81;;;5.82;100.00
62031;BME280;62035;52.094;5.112;2023-04-06T02:04:46;101786.75;;;5.98;100.00
62031;BME280;62035;52.094;5.112;2023-04-06T02:07:13;101790.88;;;5.74;100.00
62031;BME280;62035;52.094;5.112;2023-04-06T02:09:41;101787.47;;;5.86;100.00
62031;BME280;62035;52.094;5.112;2023-04-06T02:12:09;101782.50;;;5.95;100.00
62031;BME280;62035;52.094;5.112;2023-04-06T02:14:37;101781.38;;;5.99;100.00
62031;BME280;62035;52.094;5.112;2023-04-06T02:17:05;101777.75;;;5.86;100.00
62031;BME280;62035;52.094;5.112;2023-04-06T02:19:32;101769.16;;;5.83;100.00
62031;BME280;62035;52.094;5.112;2023-04-06T02:22:00;101761.16;;;5.70;100.00
62031;BME280;62035;52.094;5.112;2023-04-06T02:24:28;101763.06;;;5.96;100.00
62031;BME280;62035;52.094;5.112;2023-04-06T02:26:55;101763.13;;;5.81;100.00
62031;BME280;62035;52.094;5.112;2023-04-06T02:29:23;101756.91;;;5.67;100.00
62031;BME280;62035;52.094;5.112;2023-04-06T02:31:52;101754.56;;;5.91;100.00
62031;BME280;62035;52.094;5.112;2023-04-06T02:34:19;101752.88;;;5.90;100.00
62031;BME280;62035;52.094;5.112;2023-04-06T02:36:47;101755.28;;;6.08;100.00
62031;BME280;62035;52.094;5.112;2023-04-06T02:39:15;101752.72;;;6.06;100.00
62031;BME280;62035;52.094;5.112;2023-04-06T02:41:42;101750.59;;;5.70;100.00
62031;BME280;62035;52.094;5.112;2023-04-06T02:44:10;101748.25;;;5.94;100.00
62031;BME280;62035;52.094;5.112;2023-04-06T02:46:38;101754.06;;;5.85;100.00
62031;BME280;62035;52.094;5.112;2023-04-06T02:49:07;101742.38;;;5.75;100.00
62031;BME280;62035;52.094;5.112;2023-04-06T02:51:34;101742.22;;;5.92;100.00
62031;BME280;62035;52.094;5.112;2023-04-06T02:54:02;101733.97;;;5.82;100.00
62031;BME280;62035;52.094;5.112;2023-04-06T02:56:29;101729.47;;;5.84;100.00
62031;BME280;62035;52.094;5.112;2023-04-06T02:58:57;101722.28;;;5.72;100.00
62031;BME280;62035;52.094;5.112;2023-04-06T03:01:25;101722.84;;;5.77;100.00
62031;BME280;62035;52.094;5.112;2023-04-06T03:03:53;101727.41;;;5.89;100.00
62031;BME280;62035;52.094;5.112;2023-04-06T03:06:22;101724.00;;;5.73;100.00
62031;BME280;62035;52.094;5.112;2023-04-06T03:08:49;101716.81;;;5.75;100.00
62031;BME280;62035;52.094;5.112;2023-04-06T03:11:17;101720.22;;;5.77;100.00
62031;BME280;62035;52.094;5.112;2023-04-06T03:13:44;101714.00;;;5.78;100.00
62031;BME280;62035;52.094;5.112;2023-04-06T03:16:12;101713.03;;;5.79;100.00
62031;BME280;62035;52.094;5.112;2023-04-06T03:18:40;101705.22;;;5.78;100.00
62031;BME280;62035;52.094;5.112;2023-04-06T03:21:07;101717.25;;;5.55;100.00
62031;BME280;62035;52.094;5.112;2023-04-06T03:23:36;101712.91;;;5.54;100.00
62031;BME280;62035;52.094;5.112;2023-04-06T03:26:04;101711.69;;;5.45;100.00
62031;BME280;62035;52.094;5.112;2023-04-06T03:28:31;101706.28;;;5.61;100.00
62031;BME280;62035;52.094;5.112;2023-04-06T03:30:59;101705.06;;;5.52;100.00
62031;BME280;62035;52.094;5.112;2023-04-06T03:33:27;101701.75;;;5.63;100.00
62031;BME280;62035;52.094;5.112;2023-04-06T03:35:54;101704.75;;;5.71;100.00
62031;BME280;62035;52.094;5.112;2023-04-06T03:38:22;101700.19;;;5.46;100.00
62031;BME280;62035;52.094;5.112;2023-04-06T03:40:51;101704.47;;;5.76;100.00
62031;BME280;62035;52.094;5.112;2023-04-06T03:43:18;101700.50;;;5.83;100.00
62031;BME280;62035;52.094;5.112;2023-04-06T03:45:46;101699.19;;;5.90;100.00
62031;BME280;62035;52.094;5.112;2023-04-06T03:48:13;101699.00;;;5.79;100.00
62031;BME280;62035;52.094;5.112;2023-04-06T03:50:41;101688.13;;;5.83;100.00
62031;BME280;62035;52.094;5.112;2023-04-06T03:53:08;101684.56;;;5.70;100.00
62031;BME280;62035;52.094;5.112;2023-04-06T03:55:36;101687.56;;;5.78;100.00
62031;BME280;62035;52.094;5.112;2023-04-06T03:58:05;101689.09;;;5.68;100.00
62031;BME280;62035;52.094;5.112;2023-04-06T04:00:32;101681.88;;;5.57;100.00
62031;BME280;62035;52.094;5.112;2023-04-06T04:03:00;101689.47;;;5.90;100.00
62031;BME280;62035;52.094;5.112;2023-04-06T04:05:28;101690.13;;;5.65;100.00
62031;BME280;62035;52.094;5.112;2023-04-06T04:07:56;101686.00;;;5.61;100.00
62031;BME280;62035;52.094;5.112;2023-04-06T04:10:23;101680.81;;;5.60;100.00
62031;BME280;62035;52.094;5.112;2023-04-06T04:12:51;101686.22;;;5.58;100.00
62031;BME280;62035;52.094;5.112;2023-04-06T04:15:20;101679.16;;;5.86;100.00
62031;BME280;62035;52.094;5.112;2023-04-06T04:17:47;101687.56;;;5.78;100.00
62031;BME280;62035;52.094;5.112;2023-04-06T04:20:16;101681.56;;;5.90;100.00
62031;BME280;62035;52.094;5.112;2023-04-06T04:22:44;101677.22;;;5.89;100.00
62031;BME280;62035;52.094;5.112;2023-04-06T04:25:13;101679.25;;;5.57;100.00
62031;BME280;62035;52.094;5.112;2023-04-06T04:27:41;101673.41;;;5.52;100.00
62031;BME280;62035;52.094;5.112;2023-04-06T04:30:09;101680.81;;;5.60;100.00
62031;BME280;62035;52.094;5.112;2023-04-06T04:32:38;101684.47;;;5.72;100.00
62031;BME280;62035;52.094;5.112;2023-04-06T04:35:06;101674.94;;;5.97;100.00
62031;BME280;62035;52.094;5.112;2023-04-06T04:37:34;101672.94;;;5.87;100.00
62031;BME280;62035;52.094;5.112;2023-04-06T04:40:02;101681.16;;;5.82;100.00
62031;BME280;62035;52.094;5.112;2023-04-06T04:42:30;101677.75;;;5.80;100.00
62031;BME280;62035;52.094;5.112;2023-04-06T04:44:57;101672.19;;;5.85;100.00
62031;BME280;62035;52.094;5.112;2023-04-06T04:47:25;101671.63;;;5.94;100.00
62031;BME280;62035;52.094;5.112;2023-04-06T04:49:54;101664.16;;;5.86;100.00
62031;BME280;62035;52.094;5.112;2023-04-06T04:52:21;101671.44;;;5.97;100.00
62031;BME280;62035;52.094;5.112;2023-04-06T04:54:49;101667.97;;;6.09;100.00
62031;BME280;62035;52.094;5.112;2023-04-06T04:57:16;101665.22;;;5.98;100.00
62031;BME280;62035;52.094;5.112;2023-04-06T04:59:44;101673.22;;;5.82;100.00
62031;BME280;62035;52.094;5.112;2023-04-06T05:02:12;101661.19;;;6.05;100.00
62031;BME280;62035;52.094;5.112;2023-04-06T05:04:39;101668.91;;;5.81;100.00
62031;BME280;62035;52.094;5.112;2023-04-06T05:07:09;101647.41;;;5.73;100.00
62031;BME280;62035;52.094;5.112;2023-04-06T05:09:36;101670.50;;;5.84;100.00
62031;BME280;62035;52.094;5.112;2023-04-06T05:12:04;101667.88;;;5.69;100.00
62031;BME280;62035;52.094;5.112;2023-04-06T05:14:32;101669.88;;;5.66;100.00
62031;BME280;62035;52.094;5.112;2023-04-06T05:17:00;101671.81;;;5.77;100.00
62031;BME280;62035;52.094;5.112;2023-04-06T05:19:27;101665.69;;;5.76;100.00
62031;BME280;62035;52.094;5.112;2023-04-06T05:21:55;101669.09;;;5.78;100.00
62031;BME280;62035;52.094;5.112;2023-04-06T05:24:24;101665.44;;;5.66;100.00
62031;BME280;62035;52.094;5.112;2023-04-06T05:26:52;101661.34;;;5.75;100.00
62031;BME280;62035;52.094;5.112;2023-04-06T05:29:19;101655.88;;;5.78;100.00
62031;BME280;62035;52.094;5.112;2023-04-06T05:31:47;101662.56;;;5.84;100.00
62031;BME280;62035;52.094;5.112;2023-04-06T05:34:15;101669.66;;;5.97;100.00
62031;BME280;62035;52.094;5.112;2023-04-06T05:36:43;101662.34;;;6.01;100.00
62031;BME280;62035;52.094;5.112;2023-04-06T05:39:10;101658.88;;;5.86;100.00
62031;BME280;62035;52.094;5.112;2023-04-06T05:41:39;101663.00;;;6.05;100.00
62031;BME280;62035;52.094;5.112;2023-04-06T05:44:07;101657.47;;;5.95;100.00
62031;BME280;62035;52.094;5.112;2023-04-06T05:46:34;101657.69;;;5.78;100.00
62031;BME280;62035;52.094;5.112;2023-04-06T05:49:02;101660.78;;;5.98;100.00
62031;BME280;62035;52.094;5.112;2023-04-06T05:51:30;101654.75;;;5.82;100.00
62031;BME280;62035;52.094;5.112;2023-04-06T05:53:57;101658.22;;;5.97;100.00
62031;BME280;62035;52.094;5.112;2023-04-06T05:56:25;101660.13;;;5.95;100.00
62031;BME280;62035;52.094;5.112;2023-04-06T05:58:54;101658.94;;;6.26;100.00
62031;BME280;62035;52.094;5.112;2023-04-06T06:01:21;101661.94;;;6.34;100.00
62031;BME280;62035;52.094;5.112;2023-04-06T06:03:49;101657.00;;;6.55;100.00
62031;BME280;62035;52.094;5.112;2023-04-06T06:06:16;101655.22;;;6.81;100.00
62031;BME280;62035;52.094;5.112;2023-04-06T06:08:44;101661.25;;;6.70;100.00
62031;BME280;62035;52.094;5.112;2023-04-06T06:11:12;101651.84;;;7.04;100.00
62031;BME280;62035;52.094;5.112;2023-04-06T06:13:39;101660.53;;;7.19;100.00
62031;BME280;62035;52.094;5.112;2023-04-06T06:16:08;101660.94;;;7.13;100.00
62031;BME280;62035;52.094;5.112;2023-04-06T06:18:36;101654.56;;;7.28;100.00
62031;BME280;62035;52.094;5.112;2023-04-06T06:21:04;101652.53;;;7.44;100.00
62031;BME280;62035;52.094;5.112;2023-04-06T06:23:31;101657.91;;;7.55;100.00
62031;BME280;62035;52.094;5.112;2023-04-06T06:25:59;101647.56;;;7.76;100.00
62031;BME280;62035;52.094;5.112;2023-04-06T06:28:27;101659.28;;;7.85;100.00
62031;BME280;62035;52.094;5.112;2023-04-06T06:30:55;101654.34;;;7.67;100.00
62031;BME280;62035;52.094;5.112;2023-04-06T06:33:24;101654.41;;;7.91;100.00
62031;BME280;62035;52.094;5.112;2023-04-06T06:35:52;101649.25;;;7.77;100.00
62031;BME280;62035;52.094;5.112;2023-04-06T06:38:19;101655.63;;;7.75;100.00
62031;BME280;62035;52.094;5.112;2023-04-06T06:40:47;101658.75;;;7.56;100.00
62031;BME280;62035;52.094;5.112;2023-04-06T06:43:14;101648.66;;;7.61;100.00
62031;BME280;62035;52.094;5.112;2023-04-06T06:45:42;101654.31;;;7.56;100.00
62031;BME280;62035;52.094;5.112;2023-04-06T06:48:10;101655.69;;;7.49;100.00
62031;BME280;62035;52.094;5.112;2023-04-06T06:50:39;101641.72;;;7.34;100.00
62031;BME280;62035;52.094;5.112;2023-04-06T06:53:07;101640.03;;;7.46;100.00
62031;BME280;62035;52.094;5.112;2023-04-06T06:55:34;101645.94;;;7.50;100.00
62031;BME280;62035;52.094;5.112;2023-04-06T06:58:02;101640.56;;;7.39;100.00
62031;BME280;62035;52.094;5.112;2023-04-06T07:00:29;101647.94;;;7.59;100.00
62031;BME280;62035;52.094;5.112;2023-04-06T07:02:57;101638.56;;;7.66;100.00
62031;BME280;62035;52.094;5.112;2023-04-06T07:05:25;101632.06;;;7.59;100.00
62031;BME280;62035;52.094;5.112;2023-04-06T07:07:54;101632.66;;;7.62;100.00
62031;BME280;62035;52.094;5.112;2023-04-06T07:10:22;101631.84;;;7.86;100.00
62031;BME280;62035;52.094;5.112;2023-04-06T07:12:50;101629.81;;;7.89;100.00
62031;BME280;62035;52.094;5.112;2023-04-06T07:15:17;101624.59;;;8.12;100.00
62031;BME280;62035;52.094;5.112;2023-04-06T07:17:45;101624.28;;;7.92;100.00
62031;BME280;62035;52.094;5.112;2023-04-06T07:20:13;101624.78;;;7.97;100.00
62031;BME280;62035;52.094;5.112;2023-04-06T07:22:43;101623.91;;;8.21;100.00
62031;BME280;62035;52.094;5.112;2023-04-06T07:25:13;101623.88;;;8.33;100.00
62031;BME280;62035;52.094;5.112;2023-04-06T07:27:40;101620.47;;;8.31;100.00
62031;BME280;62035;52.094;5.112;2023-04-06T07:30:08;101630.53;;;8.50;100.00
62031;BME280;62035;52.094;5.112;2023-04-06T07:32:36;101616.56;;;8.48;100.00
62031;BME280;62035;52.094;5.112;2023-04-06T07:35:05;101621.66;;;8.27;100.00
62031;BME280;62035;52.094;5.112;2023-04-06T07:37:32;101626.41;;;8.35;100.00
62031;BME280;62035;52.094;5.112;2023-04-06T07:40:01;101627.09;;;8.72;100.00
62031;BME280;62035;52.094;5.112;2023-04-06T07:42:30;101617.72;;;8.79;100.00
62031;BME280;62035;52.094;5.112;2023-04-06T07:44:58;101621.16;;;8.57;100.00
62031;BME280;62035;52.094;5.112;2023-04-06T07:47:26;101621.69;;;8.74;100.00
62031;BME280;62035;52.094;5.112;2023-04-06T07:49:54;101624.44;;;8.83;100.00
62031;BME280;62035;52.094;5.112;2023-04-06T07:52:22;101626.75;;;8.99;100.00
62031;BME280;62035;52.094;5.112;2023-04-06T07:54:49;101624.09;;;8.77;100.00
62031;BME280;62035;52.094;5.112;2023-04-06T07:57:17;101623.38;;;8.75;100.00
62031;BME280;62035;52.094;5.112;2023-04-06T07:59:46;101609.00;;;9.22;100.00
62031;BME280;62035;52.094;5.112;2023-04-06T08:02:14;101619.50;;;9.34;100.00
62031;BME280;62035;52.094;5.112;2023-04-06T08:04:41;101616.00;;;9.56;100.00
62031;BME280;62035;52.094;5.112;2023-04-06T08:07:09;101611.25;;;9.60;100.00
62031;BME280;62035;52.094;5.112;2023-04-06T08:09:36;101611.19;;;9.82;100.00
62031;BME280;62035;52.094;5.112;2023-04-06T08:12:04;101621.00;;;9.82;100.00
62031;BME280;62035;52.094;5.112;2023-04-06T08:14:32;101606.88;;;10.02;100.00
62031;BME280;62035;52.094;5.112;2023-04-06T08:17:01;101616.75;;;10.22;100.00
62031;BME280;62035;52.094;5.112;2023-04-06T08:19:28;101580.63;;;10.09;100.00
62031;BME280;62035;52.094;5.112;2023-04-06T08:21:56;101605.13;;;9.91;100.00
62031;BME280;62035;52.094;5.112;2023-04-06T08:24:23;101606.97;;;10.12;100.00
62031;BME280;62035;52.094;5.112;2023-04-06T08:26:51;101612.28;;;10.23;100.00
62031;BME280;62035;52.094;5.112;2023-04-06T08:29:19;101611.44;;;9.90;100.00
62031;BME280;62035;52.094;5.112;2023-04-06T08:31:47;101615.00;;;10.00;100.00
62031;BME280;62035;52.094;5.112;2023-04-06T08:34:16;101613.13;;;9.80;100.00
62031;BME280;62035;52.094;5.112;2023-04-06T08:36:43;101613.41;;;9.66;100.00
62031;BME280;62035;52.094;5.112;2023-04-06T08:39:12;101613.97;;;10.13;100.00
62031;BME280;62035;52.094;5.112;2023-04-06T08:41:41;101618.69;;;9.88;100.00
62031;BME280;62035;52.094;5.112;2023-04-06T08:44:09;101617.09;;;9.54;100.00
62031;BME280;62035;52.094;5.112;2023-04-06T08:46:38;101616.91;;;9.66;100.00
62031;BME280;62035;52.094;5.112;2023-04-06T08:49:05;101618.06;;;9.96;100.00
62031;BME280;62035;52.094;5.112;2023-04-06T08:51:37;101611.78;;;10.18;100.00
62031;BME280;62035;52.094;5.112;2023-04-06T08:54:05;101621.31;;;9.99;100.00
62031;BME280;62035;52.094;5.112;2023-04-06T08:56:35;101615.78;;;9.91;100.00
62031;BME280;62035;52.094;5.112;2023-04-06T08:59:05;101617.97;;;9.86;100.00
62031;BME280;62035;52.094;5.112;2023-04-06T09:01:39;101614.34;;;9.87;100.00
62031;BME280;62035;52.094;5.112;2023-04-06T09:04:08;101619.53;;;9.89;100.00
62031;BME280;62035;52.094;5.112;2023-04-06T09:06:38;101622.56;;;10.16;100.00
62031;BME280;62035;52.094;5.112;2023-04-06T09:09:06;101627.28;;;10.13;100.00
62031;BME280;62035;52.094;5.112;2023-04-06T09:11:45;101622.09;;;10.11;100.00
62031;BME280;62035;52.094;5.112;2023-04-06T09:14:14;101636.06;;;10.35;100.00
62031;BME280;62035;52.094;5.112;2023-04-06T09:16:43;101618.53;;;10.33;100.00
62031;BME280;62035;52.094;5.112;2023-04-06T09:19:12;101636.34;;;10.21;100.00
62031;BME280;62035;52.094;5.112;2023-04-06T09:21:41;101628.97;;;10.25;100.00
62031;BME280;62035;52.094;5.112;2023-04-06T09:24:09;101636.25;;;10.00;100.00
62031;BME280;62035;52.094;5.112;2023-04-06T09:26:44;101629.44;;;9.87;100.00
62031;BME280;62035;52.094;5.112;2023-04-06T09:29:22;101624.34;;;9.95;100.00
62031;BME280;62035;52.094;5.112;2023-04-06T09:32:01;101629.06;;;9.91;100.00
62031;BME280;62035;52.094;5.112;2023-04-06T09:34:29;101631.31;;;10.39;100.00
62031;BME280;62035;52.094;5.112;2023-04-06T09:36:58;101622.63;;;10.37;100.00
62031;BME280;62035;52.094;5.112;2023-04-06T09:39:26;101629.84;;;10.03;100.00
62031;BME280;62035;52.094;5.112;2023-04-06T09:41:54;101621.84;;;10.14;100.00
62031;BME280;62035;52.094;5.112;2023-04-06T09:44:22;101615.06;;;9.89;100.00
62031;BME280;62035;52.094;5.112;2023-04-06T09:46:53;101615.34;;;10.07;100.00
62031;BME280;62035;52.094;5.112;2023-04-06T09:49:22;101614.09;;;10.22;100.00
62031;BME280;62035;52.094;5.112;2023-04-06T09:51:54;101617.81;;;10.31;100.00
62031;BME280;62035;52.094;5.112;2023-04-06T09:54:29;101610.88;;;10.60;100.00
62031;BME280;62035;52.094;5.112;2023-04-06T09:57:07;101617.22;;;10.16;100.00
62031;BME280;62035;52.094;5.112;2023-04-06T09:59:44;101618.44;;;10.23;100.00
62031;BME280;62035;52.094;5.112;2023-04-06T10:02:22;101619.41;;;10.43;100.00
62031;BME280;62035;52.094;5.112;2023-04-06T10:05:03;101614.09;;;10.22;100.00
62031;BME280;62035;52.094;5.112;2023-04-06T10:07:37;101606.66;;;9.62;100.00
62031;BME280;62035;52.094;5.112;2023-04-06T10:10:09;101618.59;;;10.11;100.00
62031;BME280;62035;52.094;5.112;2023-04-06T10:12:40;101615.66;;;10.25;100.00
62031;BME280;62035;52.094;5.112;2023-04-06T10:15:09;101604.44;;;10.10;100.00
62031;BME280;62035;52.094;5.112;2023-04-06T10:17:37;101613.25;;;10.22;100.00
62031;BME280;62035;52.094;5.112;2023-04-06T10:20:09;101616.50;;;10.14;100.00
62031;BME280;62035;52.094;5.112;2023-04-06T10:22:43;101618.00;;;10.07;100.00
62031;BME280;62035;52.094;5.112;2023-04-06T10:25:27;101618.16;;;10.38;100.00
62031;BME280;62035;52.094;5.112;2023-04-06T10:28:04;101620.72;;;9.96;100.00
62031;BME280;62035;52.094;5.112;2023-04-06T10:30:34;101612.53;;;9.88;100.00
62031;BME280;62035;52.094;5.112;2023-04-06T10:33:12;101589.19;;;9.59;100.00
62031;BME280;62035;52.094;5.112;2023-04-06T10:35:40;101617.22;;;9.52;100.00
62031;BME280;62035;52.094;5.112;2023-04-06T10:38:08;101617.50;;;9.70;100.00
62031;BME280;62035;52.094;5.112;2023-04-06T10:40:39;101608.09;;;9.66;100.00
62031;BME280;62035;52.094;5.112;2023-04-06T10:43:10;101610.16;;;9.62;100.00
62031;BME280;62035;52.094;5.112;2023-04-06T10:45:39;101604.88;;;9.51;100.00
62031;BME280;62035;52.094;5.112;2023-04-06T10:48:15;101612.41;;;9.89;100.00
62031;BME280;62035;52.094;5.112;2023-04-06T10:50:44;101602.97;;;9.85;100.00
62031;BME280;62035;52.094;5.112;2023-04-06T10:53:21;101610.25;;;9.72;100.00
62031;BME280;62035;52.094;5.112;2023-04-06T10:55:51;101592.38;;;9.74;100.00
62031;BME280;62035;52.094;5.112;2023-04-06T10:58:24;101598.63;;;9.84;100.00
62031;BME280;62035;52.094;5.112;2023-04-06T11:00:54;101598.63;;;9.84;100.00
62031;BME280;62035;52.094;5.112;2023-04-06T11:03:22;101604.09;;;9.72;100.00
62031;BME280;62035;52.094;5.112;2023-04-06T11:05:50;101605.72;;;9.52;100.00
62031;BME280;62035;52.094;5.112;2023-04-06T11:08:29;101600.31;;;9.42;100.00
62031;BME280;62035;52.094;5.112;2023-04-06T11:11:07;101600.63;;;9.60;100.00
62031;BME280;62035;52.094;5.112;2023-04-06T11:13:38;101591.63;;;9.40;100.00
62031;BME280;62035;52.094;5.112;2023-04-06T11:16:12;101605.50;;;9.21;100.00
62031;BME280;62035;52.094;5.112;2023-04-06T11:18:48;101593.63;;;9.59;100.00
62031;BME280;62035;52.094;5.112;2023-04-06T11:21:16;101591.25;;;9.33;100.00
62031;BME280;62035;52.094;5.112;2023-04-06T11:23:44;101596.81;;;9.30;100.00
62031;BME280;62035;52.094;5.112;2023-04-06T11:26:13;101595.34;;;9.38;100.00
62031;BME280;62035;52.094;5.112;2023-04-06T11:28:42;101587.63;;;9.46;100.00
62031;BME280;62035;52.094;5.112;2023-04-06T11:31:10;101591.13;;;9.35;100.00
62031;BME280;62035;52.094;5.112;2023-04-06T11:33:38;101587.16;;;9.41;100.00
62031;BME280;62035;52.094;5.112;2023-04-06T11:36:06;101586.53;;;9.48;100.00
62031;BME280;62035;52.094;5.112;2023-04-06T11:38:38;101587.75;;;9.44;100.00
62031;BME280;62035;52.094;5.112;2023-04-06T11:41:06;101576.75;;;9.49;100.00
62031;BME280;62035;52.094;5.112;2023-04-06T11:43:35;101581.13;;;9.27;100.00
62031;BME280;62035;52.094;5.112;2023-04-06T11:46:04;101590.16;;;9.36;100.00
62031;BME280;62035;52.094;5.112;2023-04-06T11:48:43;101582.31;;;9.46;100.00
62031;BME280;62035;52.094;5.112;2023-04-06T11:51:12;101572.91;;;9.42;100.00
62031;BME280;62035;52.094;5.112;2023-04-06T11:53:48;101576.00;;;9.58;100.00
62031;BME280;62035;52.094;5.112;2023-04-06T11:56:23;101568.41;;;9.53;100.00
62031;BME280;62035;52.094;5.112;2023-04-06T11:58:54;101571.81;;;9.44;100.00
62031;BME280;62035;52.094;5.112;2023-04-06T12:01:22;101579.63;;;9.57;100.00
62031;BME280;62035;52.094;5.112;2023-04-06T12:03:51;101576.75;;;9.49;100.00
62031;BME280;62035;52.094;5.112;2023-04-06T12:06:19;101565.50;;;9.56;100.00
62031;BME280;62035;52.094;5.112;2023-04-06T12:08:47;101568.72;;;9.60;100.00
62031;BME280;62035;52.094;5.112;2023-04-06T12:11:15;101564.34;;;9.27;100.00
62031;BME280;62035;52.094;5.112;2023-04-06T12:13:42;101570.41;;;9.18;100.00
62031;BME280;62035;52.094;5.112;2023-04-06T12:16:11;101555.81;;;9.12;100.00
62031;BME280;62035;52.094;5.112;2023-04-06T12:18:39;101567.16;;;9.03;100.00
62031;BME280;62035;52.094;5.112;2023-04-06T12:21:06;101572.47;;;9.14;100.00
62031;BME280;62035;52.094;5.112;2023-04-06T12:23:34;101563.84;;;9.33;100.00
62031;BME280;62035;52.094;5.112;2023-04-06T12:26:02;101561.13;;;9.12;100.00
62031;BME280;62035;52.094;5.112;2023-04-06T12:28:30;101570.28;;;9.19;100.00
62031;BME280;62035;52.094;5.112;2023-04-06T12:30:58;101562.09;;;9.11;100.00
62031;BME280;62035;52.094;5.112;2023-04-06T12:33:27;101563.78;;;9.12;100.00
62031;BME280;62035;52.094;5.112;2023-04-06T12:35:55;101563.06;;;8.99;100.00
62031;BME280;62035;52.094;5.112;2023-04-06T12:38:22;101556.66;;;9.01;100.00
62031;BME280;62035;52.094;5.112;2023-04-06T12:40:50;101563.41;;;9.06;100.00
62031;BME280;62035;52.094;5.112;2023-04-06T12:43:18;101555.22;;;8.97;100.00
62031;BME280;62035;52.094;5.112;2023-04-06T12:45:45;101560.88;;;8.93;100.00
62031;BME280;62035;52.094;5.112;2023-04-06T12:48:13;101549.78;;;8.88;100.00
62031;BME280;62035;52.094;5.112;2023-04-06T12:50:42;101561.25;;;8.88;100.00
62031;BME280;62035;52.094;5.112;2023-04-06T12:53:09;101550.97;;;8.95;100.00
62031;BME280;62035;52.094;5.112;2023-04-06T12:55:37;101551.22;;;8.92;100.00